createdAt,value
2022-11-16T00:00:13.879Z,95283.44
2022-11-16T00:02:43.514Z,95364.03
2022-11-16T00:05:11.933Z,95308.56
2022-11-16T00:07:40.153Z,95331.63
2022-11-16T00:10:11.298Z,95284.94
2022-11-16T00:12:40.063Z,95342.59
2022-11-16T00:15:09.340Z,95297.69
2022-11-16T00:17:43.830Z,95281.94
2022-11-16T00:20:12.931Z,95308.19
2022-11-16T00:22:41.184Z,95318.31
2022-11-16T00:25:10.115Z,95141.56
2022-11-16T00:27:38.357Z,95320.38
2022-11-16T00:30:07.990Z,95250.41
2022-11-16T00:32:36.292Z,95293.31
2022-11-16T00:35:07.037Z,95301.34
2022-11-16T00:37:35.329Z,95311.50
2022-11-16T00:40:04.198Z,95307.44
2022-11-16T00:42:32.451Z,95290.50
2022-11-16T00:45:00.926Z,95281.38
2022-11-16T00:47:29.135Z,95328.00
2022-11-16T00:49:57.363Z,95343.47
2022-11-16T00:52:27.340Z,95267.63
2022-11-16T00:54:55.927Z,95315.88
2022-11-16T00:57:25.128Z,95339.00
2022-11-16T00:59:53.501Z,95301.47
2022-11-16T01:02:22.486Z,95308.69
2022-11-16T01:05:00.723Z,95298.56
2022-11-16T01:07:32.923Z,95346.34
2022-11-16T01:10:01.303Z,95318.44
2022-11-16T01:12:28.591Z,95287.25
2022-11-16T01:14:56.893Z,95304.31
2022-11-16T01:17:25.546Z,95287.13
2022-11-16T01:19:54.045Z,95276.63
2022-11-16T01:22:23.113Z,95358.44
2022-11-16T01:24:52.731Z,95321.06
2022-11-16T01:27:20.956Z,95304.94
2022-11-16T01:29:49.267Z,95341.38
2022-11-16T01:32:18.293Z,95310.13
2022-11-16T01:34:46.587Z,95288.97
2022-11-16T01:37:26.253Z,95306.13
2022-11-16T01:39:56.484Z,95293.81
2022-11-16T01:42:28.053Z,95316.81
2022-11-16T01:45:08.456Z,95272.56
2022-11-16T01:47:36.771Z,95289.56
2022-11-16T01:50:11.596Z,95325.09
2022-11-16T01:52:47.065Z,95269.19
2022-11-16T01:55:17.656Z,95250.91
2022-11-16T01:58:07.276Z,95310.63
2022-11-16T02:00:56.125Z,95313.53
2022-11-16T02:03:38.477Z,95269.00
2022-11-16T02:06:34.373Z,95293.38
2022-11-16T02:10:00.512Z,95295.16
2022-11-16T02:12:57.734Z,95256.06
2022-11-16T02:15:42.597Z,95304.75
2022-11-16T02:18:32.833Z,95294.44
2022-11-16T02:21:34.444Z,95322.31
2022-11-16T02:24:18.513Z,95278.00
2022-11-16T02:27:16.608Z,95299.31
2022-11-16T02:29:51.590Z,95288.00
2022-11-16T02:32:27.571Z,95250.00
2022-11-16T02:35:02.532Z,95256.16
2022-11-16T02:37:35.983Z,95298.88
2022-11-16T02:40:10.943Z,95276.47
2022-11-16T02:42:45.149Z,95233.75
2022-11-16T02:45:21.213Z,95263.72
2022-11-16T02:47:52.384Z,95274.00
2022-11-16T02:50:23.363Z,95275.75
2022-11-16T02:52:51.604Z,95202.22
2022-11-16T02:55:20.149Z,95234.09
2022-11-16T02:57:54.901Z,95267.06
2022-11-16T03:00:28.841Z,95249.16
2022-11-16T03:03:09.494Z,95190.97
2022-11-16T03:05:42.565Z,95279.00
2022-11-16T03:08:19.933Z,95244.66
2022-11-16T03:11:13.946Z,95229.81
2022-11-16T03:13:43.588Z,95270.38
2022-11-16T03:16:19.156Z,95272.19
2022-11-16T03:18:51.883Z,95308.47
2022-11-16T03:21:26.865Z,95284.75
2022-11-16T03:23:55.605Z,95243.44
2022-11-16T03:26:31.463Z,95210.84
2022-11-16T03:29:05.669Z,95266.31
2022-11-16T03:31:44.675Z,95259.25
2022-11-16T03:34:20.978Z,95207.16
2022-11-16T03:36:51.613Z,95194.59
2022-11-16T03:39:24.852Z,95247.88
2022-11-16T03:41:53.555Z,95221.63
2022-11-16T03:44:22.820Z,95304.25
2022-11-16T03:46:52.445Z,95265.75
2022-11-16T03:49:23.262Z,95254.81
2022-11-16T03:51:54.005Z,95195.06
2022-11-16T03:54:22.733Z,95256.88
2022-11-16T03:56:51.141Z,95248.00
2022-11-16T03:59:19.716Z,95174.19
2022-11-16T04:01:48.106Z,95247.44
2022-11-16T04:04:32.072Z,95235.88
2022-11-16T04:07:22.293Z,95225.94
2022-11-16T04:10:08.244Z,95198.78
2022-11-16T04:12:53.969Z,95252.09
2022-11-16T04:15:39.879Z,95255.25
2022-11-16T04:18:28.406Z,95268.28
2022-11-16T04:21:15.938Z,95169.38
2022-11-16T04:24:01.449Z,95279.59
2022-11-16T04:26:43.907Z,95252.03
2022-11-16T04:29:14.536Z,95242.19
2022-11-16T04:32:00.568Z,95252.88
2022-11-16T04:34:52.207Z,95253.50
2022-11-16T04:37:39.549Z,95229.63
2022-11-16T04:40:09.975Z,95179.22
2022-11-16T04:42:38.234Z,95292.72
2022-11-16T04:45:25.234Z,95237.03
2022-11-16T04:47:54.983Z,95202.69
2022-11-16T04:50:28.554Z,95232.66
2022-11-16T04:52:58.921Z,95214.53
2022-11-16T04:55:27.744Z,95195.13
2022-11-16T04:57:56.090Z,95163.63
2022-11-16T05:00:24.581Z,95218.16
2022-11-16T05:02:56.921Z,95243.69
2022-11-16T05:05:35.158Z,95234.25
2022-11-16T05:08:05.677Z,95219.78
2022-11-16T05:10:34.728Z,95211.84
2022-11-16T05:13:03.038Z,95181.94
2022-11-16T05:15:31.329Z,95239.06
2022-11-16T05:18:01.073Z,95178.31
2022-11-16T05:20:48.040Z,95215.69
2022-11-16T05:23:35.482Z,95223.56
2022-11-16T05:26:09.637Z,95206.31
2022-11-16T05:28:38.101Z,95238.16
2022-11-16T05:31:08.717Z,95242.50
2022-11-16T05:33:37.623Z,95204.19
2022-11-16T05:36:06.904Z,95244.06
2022-11-16T05:38:36.756Z,95230.94
2022-11-16T05:41:07.095Z,95211.56
2022-11-16T05:43:35.367Z,95226.38
2022-11-16T05:46:15.888Z,95213.81
2022-11-16T05:48:45.155Z,95253.81
2022-11-16T05:51:14.473Z,95251.44
2022-11-16T05:53:44.729Z,95282.94
2022-11-16T05:56:18.074Z,95233.91
2022-11-16T05:58:48.016Z,95251.63
2022-11-16T06:01:16.654Z,95280.06
2022-11-16T06:03:45.134Z,95257.88
2022-11-16T06:06:13.551Z,95151.25
2022-11-16T06:08:44.157Z,95282.06
2022-11-16T06:11:16.427Z,95174.41
2022-11-16T06:13:45.086Z,95289.56
2022-11-16T06:16:14.218Z,95266.50
2022-11-16T06:18:45.881Z,95289.50
2022-11-16T06:21:19.202Z,95263.34
2022-11-16T06:23:49.968Z,95280.63
2022-11-16T06:26:18.546Z,95273.38
2022-11-16T06:28:51.010Z,95252.84
2022-11-16T06:31:19.284Z,95227.78
2022-11-16T06:33:47.575Z,95254.91
2022-11-16T06:36:21.260Z,95283.88
2022-11-16T06:38:51.873Z,95331.00
2022-11-16T06:41:21.531Z,95268.50
2022-11-16T06:43:51.484Z,95301.69
2022-11-16T06:46:24.615Z,95279.06
2022-11-16T06:48:53.997Z,95273.38
2022-11-16T06:51:22.438Z,95233.19
2022-11-16T06:53:52.074Z,95270.63
2022-11-16T06:56:21.708Z,95283.13
2022-11-16T06:58:56.605Z,95322.31
2022-11-16T07:01:26.798Z,95287.13
2022-11-16T07:04:01.464Z,95264.25
2022-11-16T07:06:30.875Z,95275.53
2022-11-16T07:09:02.176Z,95324.38
2022-11-16T07:11:40.184Z,95237.53
2022-11-16T07:14:09.089Z,95231.25
2022-11-16T07:16:37.991Z,95278.78
2022-11-16T07:19:06.538Z,95317.22
2022-11-16T07:21:38.240Z,95317.06
2022-11-16T07:24:12.326Z,95299.44
2022-11-16T07:26:40.585Z,95285.66
2022-11-16T07:29:15.838Z,95268.44
2022-11-16T07:32:01.496Z,95339.94
2022-11-16T07:34:52.486Z,95310.41
2022-11-16T07:37:20.909Z,95326.56
2022-11-16T07:39:50.558Z,95270.81
2022-11-16T07:42:19.494Z,95366.44
2022-11-16T07:45:23.567Z,95321.81
2022-11-16T07:47:59.372Z,95292.75
2022-11-16T07:50:46.442Z,95344.94
2022-11-16T07:53:15.257Z,95298.94
2022-11-16T07:55:44.867Z,95323.06
2022-11-16T07:58:14.731Z,95305.94
2022-11-16T08:00:43.168Z,95304.94
2022-11-16T08:03:19.311Z,95309.81
2022-11-16T08:06:00.861Z,95323.75
2022-11-16T08:08:30.082Z,95347.84
2022-11-16T08:11:02.522Z,95365.09
2022-11-16T08:13:34.069Z,95330.53
2022-11-16T08:16:03.841Z,95353.75
2022-11-16T08:18:34.760Z,95345.88
2022-11-16T08:21:05.332Z,95316.56
2022-11-16T08:23:33.910Z,95326.56
2022-11-16T08:26:06.845Z,95387.97
2022-11-16T08:29:29.277Z,95350.47
2022-11-16T08:32:00.081Z,95271.19
2022-11-16T08:34:53.612Z,95336.97
2022-11-16T08:37:23.565Z,95312.50
2022-11-16T08:39:51.905Z,95327.09
2022-11-16T08:42:22.737Z,95379.00
2022-11-16T08:44:51.230Z,95345.53
2022-11-16T08:47:21.717Z,95302.41
2022-11-16T08:49:57.283Z,95317.38
2022-11-16T08:52:27.723Z,95329.97
2022-11-16T08:54:56.900Z,95392.88
2022-11-16T08:57:26.591Z,95320.91
2022-11-16T08:59:59.172Z,95295.47
2022-11-16T09:02:27.455Z,95369.31
2022-11-16T09:05:20.972Z,95330.78
2022-11-16T09:07:53.960Z,95383.09
2022-11-16T09:10:25.106Z,95360.94
2022-11-16T09:12:54.749Z,95362.63
2022-11-16T09:15:23.018Z,95301.19
2022-11-16T09:17:54.812Z,95372.09
2022-11-16T09:20:23.188Z,95355.78
2022-11-16T09:22:51.442Z,95369.19
2022-11-16T09:25:19.726Z,95371.28
2022-11-16T09:27:48.389Z,95372.09
2022-11-16T09:30:18.641Z,95378.78
2022-11-16T09:32:46.881Z,95379.03
2022-11-16T09:35:15.290Z,95366.78
2022-11-16T09:37:43.531Z,95360.38
2022-11-16T09:40:13.172Z,95344.97
2022-11-16T09:42:58.504Z,95326.25
2022-11-16T09:45:37.995Z,95389.91
2022-11-16T09:48:12.322Z,95373.13
2022-11-16T09:50:47.051Z,95402.31
2022-11-16T09:53:27.107Z,95365.66
2022-11-16T09:55:58.301Z,95361.25
2022-11-16T09:58:33.279Z,95349.38
2022-11-16T10:01:13.860Z,95399.59
2022-11-16T10:03:49.114Z,95388.53
2022-11-16T10:06:23.889Z,95358.34
2022-11-16T10:08:56.608Z,95324.47
2022-11-16T10:11:55.522Z,95415.97
2022-11-16T10:14:47.090Z,95354.13
2022-11-16T10:17:28.811Z,95412.97
2022-11-16T10:20:05.409Z,95390.44
2022-11-16T10:22:47.917Z,95387.75
2022-11-16T10:25:18.054Z,95285.31
2022-11-16T10:28:19.373Z,95376.84
2022-11-16T10:30:55.777Z,95403.22
2022-11-16T10:33:35.060Z,95386.59
2022-11-16T10:36:06.763Z,95352.06
2022-11-16T10:38:35.052Z,95348.41
2022-11-16T10:41:14.209Z,95353.22
2022-11-16T10:43:44.554Z,95355.75
2022-11-16T10:46:21.813Z,95335.38
2022-11-16T10:48:59.990Z,95354.63
2022-11-16T10:51:28.332Z,95360.88
2022-11-16T10:53:57.113Z,95402.59
2022-11-16T10:56:30.087Z,95371.31
2022-11-16T10:59:01.153Z,95375.22
2022-11-16T11:01:37.090Z,95348.00
2022-11-16T11:04:21.984Z,95362.84
2022-11-16T11:06:53.564Z,95357.06
2022-11-16T11:09:27.750Z,95338.94
2022-11-16T11:12:32.147Z,95344.63
2022-11-16T11:15:04.847Z,95385.66
2022-11-16T11:17:35.423Z,95361.91
2022-11-16T11:20:12.009Z,95231.19
2022-11-16T11:22:45.447Z,95347.19
2022-11-16T11:25:23.394Z,95334.88
2022-11-16T11:27:54.039Z,95340.16
2022-11-16T11:30:23.178Z,95296.41
2022-11-16T11:32:52.872Z,95322.91
2022-11-16T11:35:27.974Z,95330.41
2022-11-16T11:38:01.167Z,95301.25
2022-11-16T11:40:32.825Z,95195.03
2022-11-16T11:43:08.000Z,95335.25
2022-11-16T11:45:43.859Z,95325.53
2022-11-16T11:48:27.917Z,95317.75
2022-11-16T11:51:02.247Z,95334.81
2022-11-16T11:53:54.071Z,95319.03
2022-11-16T11:56:22.712Z,95302.44
2022-11-16T11:58:52.011Z,95281.28
2022-11-16T12:01:50.732Z,95325.84
2022-11-16T12:05:11.669Z,95316.94
2022-11-16T12:08:12.448Z,95380.59
2022-11-16T12:10:51.020Z,95350.00
2022-11-16T12:13:46.439Z,95322.59
2022-11-16T12:16:26.213Z,95288.00
2022-11-16T12:19:21.174Z,95323.88
2022-11-16T12:22:02.102Z,95347.09
2022-11-16T12:24:48.394Z,95357.44
2022-11-16T12:27:27.105Z,95337.25
2022-11-16T12:30:07.868Z,95326.84
2022-11-16T12:33:06.236Z,95421.72
2022-11-16T12:35:50.086Z,95325.63
2022-11-16T12:38:42.857Z,95319.59
2022-11-16T12:41:45.973Z,95381.69
2022-11-16T12:44:20.695Z,95289.28
2022-11-16T12:46:59.300Z,95315.75
2022-11-16T12:50:02.908Z,95324.22
2022-11-16T12:52:53.646Z,95332.81
2022-11-16T12:55:31.595Z,95306.59
2022-11-16T12:58:19.681Z,95221.50
2022-11-16T13:01:03.003Z,95280.69
2022-11-16T13:03:39.449Z,95305.03
2022-11-16T13:06:47.145Z,95286.78
2022-11-16T13:09:20.241Z,95203.66
2022-11-16T13:11:52.483Z,95279.06
2022-11-16T13:14:28.542Z,95269.75
2022-11-16T13:16:58.635Z,95325.50
2022-11-16T13:19:27.649Z,95336.66
2022-11-16T13:22:03.158Z,95277.66
2022-11-16T13:24:48.455Z,95298.53
2022-11-16T13:27:37.341Z,95325.50
2022-11-16T13:30:17.984Z,95316.53
2022-11-16T13:33:04.119Z,95287.94
2022-11-16T13:35:33.011Z,95316.75
2022-11-16T13:38:01.222Z,95245.41
2022-11-16T13:40:36.824Z,95278.59
2022-11-16T13:43:16.749Z,95273.72
2022-11-16T13:45:57.980Z,95268.88
2022-11-16T13:48:32.991Z,95272.72
2022-11-16T13:51:04.557Z,95276.16
2022-11-16T13:54:38.014Z,95241.31
2022-11-16T13:56:29.345Z,95294.59
2022-11-16T13:58:59.475Z,95272.31
2022-11-16T14:01:56.353Z,95281.81
2022-11-16T14:04:56.865Z,95262.06
2022-11-16T14:07:47.956Z,95091.19
2022-11-16T14:11:00.958Z,95266.94
2022-11-16T14:13:40.854Z,95246.22
2022-11-16T14:16:50.654Z,95272.97
2022-11-16T14:19:55.947Z,95262.41
2022-11-16T14:22:52.454Z,95170.34
2022-11-16T14:25:33.285Z,95273.38
2022-11-16T14:28:29.129Z,95215.63
2022-11-16T14:31:08.899Z,95267.31
2022-11-16T14:33:39.472Z,95208.91
2022-11-16T14:36:10.930Z,95232.78
2022-11-16T14:38:41.451Z,95270.81
2022-11-16T14:41:19.968Z,95207.34
2022-11-16T14:43:52.899Z,95246.31
2022-11-16T14:46:26.311Z,95238.22
2022-11-16T14:48:58.337Z,95239.16
2022-11-16T14:51:31.990Z,95255.06
2022-11-16T14:54:02.981Z,95253.53
2022-11-16T14:56:35.000Z,95235.66
2022-11-16T14:59:04.439Z,95254.13
2022-11-16T15:01:37.004Z,95222.88
2022-11-16T15:04:18.990Z,95265.69
2022-11-16T15:06:52.522Z,95187.25
2022-11-16T15:09:27.709Z,95162.31
2022-11-16T15:12:14.899Z,95226.78
2022-11-16T15:14:49.397Z,95228.59
2022-11-16T15:17:20.190Z,95254.94
2022-11-16T15:20:01.069Z,95232.88
2022-11-16T15:22:31.993Z,95236.31
2022-11-16T15:25:02.150Z,95225.16
2022-11-16T15:27:38.425Z,95203.66
2022-11-16T15:30:19.192Z,95209.28
2022-11-16T15:32:49.459Z,95152.16
2022-11-16T15:35:23.179Z,95161.06
2022-11-16T15:38:03.242Z,95199.50
2022-11-16T15:40:32.240Z,95205.47
2022-11-16T15:43:03.860Z,95250.91
2022-11-16T15:45:33.970Z,95208.31
2022-11-16T15:48:04.842Z,95234.53
2022-11-16T15:50:34.452Z,95180.50
2022-11-16T15:53:02.907Z,95251.41
2022-11-16T15:55:35.727Z,95197.47
2022-11-16T15:58:15.234Z,95241.97
2022-11-16T16:00:48.622Z,95248.63
2022-11-16T16:03:21.999Z,95214.56
2022-11-16T16:05:53.119Z,95235.75
2022-11-16T16:08:35.428Z,95208.38
2022-11-16T16:11:11.876Z,95189.28
2022-11-16T16:13:42.583Z,95241.19
2022-11-16T16:16:31.357Z,95215.72
2022-11-16T16:19:08.202Z,95198.28
2022-11-16T16:21:46.968Z,95145.38
2022-11-16T16:24:42.300Z,95260.56
2022-11-16T16:27:14.252Z,95251.63
2022-11-16T16:29:42.745Z,95230.91
2022-11-16T16:32:17.013Z,95244.13
2022-11-16T16:34:45.228Z,95229.41
2022-11-16T16:37:15.854Z,95232.06
2022-11-16T16:39:44.089Z,95236.03
2022-11-16T16:42:14.707Z,95164.19
2022-11-16T16:44:43.715Z,95248.72
2022-11-16T16:47:12.618Z,95182.19
2022-11-16T16:49:41.239Z,95206.94
2022-11-16T16:52:12.876Z,95225.28
2022-11-16T16:54:42.907Z,95226.50
2022-11-16T16:57:15.545Z,95218.72
2022-11-16T16:59:45.201Z,95193.59
2022-11-16T17:02:18.428Z,95232.63
2022-11-16T17:04:48.421Z,95203.00
2022-11-16T17:07:17.117Z,95192.34
2022-11-16T17:09:46.830Z,95250.72
2022-11-16T17:12:15.025Z,95211.19
2022-11-16T17:14:43.278Z,95172.19
2022-11-16T17:17:11.436Z,95200.63
2022-11-16T17:19:39.649Z,95224.13
2022-11-16T17:22:07.822Z,95228.28
2022-11-16T17:24:36.216Z,95232.25
2022-11-16T17:27:06.314Z,95176.69
2022-11-16T17:29:34.516Z,95215.78
2022-11-16T17:32:03.239Z,95168.00
2022-11-16T17:34:32.442Z,95206.00
2022-11-16T17:37:00.643Z,95195.06
2022-11-16T17:39:28.900Z,95229.22
2022-11-16T17:41:57.079Z,95194.88
2022-11-16T17:44:27.165Z,95218.88
2022-11-16T17:46:55.337Z,95164.81
2022-11-16T17:49:23.538Z,95174.91
2022-11-16T17:51:51.760Z,95166.44
2022-11-16T17:54:20.040Z,95169.41
2022-11-16T17:56:48.519Z,95226.19
2022-11-16T17:59:16.786Z,95218.13
2022-11-16T18:01:46.735Z,95148.69
2022-11-16T18:04:14.944Z,95139.41
2022-11-16T18:06:43.183Z,95145.56
2022-11-16T18:09:11.656Z,95155.56
2022-11-16T18:11:40.148Z,95163.16
2022-11-16T18:14:10.457Z,95137.69
2022-11-16T18:16:41.062Z,95170.03
2022-11-16T18:19:16.001Z,95129.19
2022-11-16T18:21:45.108Z,95155.41
2022-11-16T18:24:13.929Z,95147.66
2022-11-16T18:26:42.707Z,95154.16
2022-11-16T18:29:12.640Z,95186.34
2022-11-16T18:31:40.976Z,95130.94
2022-11-16T18:34:14.636Z,95145.66
2022-11-16T18:36:42.919Z,95160.66
2022-11-16T18:39:11.154Z,95116.47
2022-11-16T18:41:50.127Z,95100.69
2022-11-16T18:44:22.673Z,95119.38
2022-11-16T18:46:50.916Z,95150.09
2022-11-16T18:49:20.489Z,95115.13
2022-11-16T18:51:48.787Z,95114.88
2022-11-16T18:54:16.999Z,95114.56
2022-11-16T18:56:45.242Z,95098.53
2022-11-16T18:59:13.508Z,95132.91
2022-11-16T19:01:41.756Z,95143.94
2022-11-16T19:04:36.039Z,95055.38
2022-11-16T19:07:04.348Z,95104.69
2022-11-16T19:09:33.105Z,95126.44
2022-11-16T19:12:01.321Z,95110.16
2022-11-16T19:14:29.525Z,95086.16
2022-11-16T19:16:57.850Z,95054.84
2022-11-16T19:19:27.711Z,94962.78
2022-11-16T19:21:57.310Z,95096.66
2022-11-16T19:24:25.512Z,95095.44
2022-11-16T19:26:53.769Z,95049.66
2022-11-16T19:29:21.961Z,95047.13
2022-11-16T19:31:50.213Z,95028.56
2022-11-16T19:34:18.435Z,95059.59
2022-11-16T19:36:46.693Z,95093.63
2022-11-16T19:39:16.286Z,94980.03
2022-11-16T19:41:44.497Z,95028.16
2022-11-16T19:44:12.725Z,95052.22
2022-11-16T19:46:40.963Z,95064.50
2022-11-16T19:49:19.458Z,95050.44
2022-11-16T19:51:48.545Z,95082.03
2022-11-16T19:54:19.634Z,95094.03
2022-11-16T19:56:53.658Z,95063.44
2022-11-16T19:59:23.239Z,95067.88
2022-11-16T20:01:51.478Z,95059.75
2022-11-16T20:04:19.710Z,95127.84
2022-11-16T20:06:48.052Z,95089.25
2022-11-16T20:09:16.272Z,95084.69
2022-11-16T20:11:45.889Z,95092.97
2022-11-16T20:14:14.952Z,95121.91
2022-11-16T20:16:44.764Z,95096.97
2022-11-16T20:19:13.049Z,95069.31
2022-11-16T20:21:43.422Z,95110.63
2022-11-16T20:24:13.899Z,95067.00
2022-11-16T20:26:46.361Z,95093.59
2022-11-16T20:29:16.372Z,95071.75
2022-11-16T20:31:45.303Z,95055.38
2022-11-16T20:34:15.719Z,95060.25
2022-11-16T20:36:46.410Z,95102.59
2022-11-16T20:39:16.828Z,95062.00
2022-11-16T20:41:47.932Z,95008.38
2022-11-16T20:44:21.094Z,95106.47
2022-11-16T20:46:50.580Z,95073.06
2022-11-16T20:49:18.852Z,95134.06
2022-11-16T20:51:48.350Z,95085.91
2022-11-16T20:54:16.550Z,95056.28
2022-11-16T20:56:48.088Z,95115.34
2022-11-16T20:59:16.558Z,95085.69
2022-11-16T21:02:11.126Z,95055.41
2022-11-16T21:04:39.296Z,95045.66
2022-11-16T21:07:07.557Z,95069.19
2022-11-16T21:09:56.126Z,95051.31
2022-11-16T21:12:43.227Z,95054.47
2022-11-16T21:15:11.781Z,95051.34
2022-11-16T21:17:40.015Z,95051.75
2022-11-16T21:20:26.772Z,95007.25
2022-11-16T21:22:55.545Z,95034.09
2022-11-16T21:25:23.823Z,95017.00
2022-11-16T21:27:53.397Z,95034.59
2022-11-16T21:30:21.710Z,95047.78
2022-11-16T21:32:50.432Z,95017.47
2022-11-16T21:35:23.452Z,95041.19
2022-11-16T21:37:51.665Z,95042.78
2022-11-16T21:40:20.001Z,95031.00
2022-11-16T21:42:49.989Z,94974.50
2022-11-16T21:45:19.660Z,94992.00
2022-11-16T21:47:47.900Z,95000.72
2022-11-16T21:50:31.006Z,95003.38
2022-11-16T21:53:02.003Z,95016.72
2022-11-16T21:55:30.338Z,95032.06
2022-11-16T21:57:58.940Z,94993.59
2022-11-16T22:00:28.980Z,95004.66
2022-11-16T22:02:57.227Z,95016.03
2022-11-16T22:05:42.818Z,95036.38
2022-11-16T22:08:12.576Z,94987.75
2022-11-16T22:10:40.940Z,95007.25
2022-11-16T22:13:09.099Z,94913.34
2022-11-16T22:15:38.697Z,94985.63
2022-11-16T22:18:07.085Z,94968.22
2022-11-16T22:20:35.343Z,95009.66
2022-11-16T22:23:03.559Z,94984.59
2022-11-16T22:25:31.947Z,94955.06
2022-11-16T22:30:51.931Z,94989.75
2022-11-16T22:33:20.686Z,94986.16
2022-11-16T22:35:48.849Z,94968.47
2022-11-16T22:38:17.027Z,94937.94
2022-11-16T22:40:51.509Z,95126.16
2022-11-16T22:43:20.164Z,94943.97
2022-11-16T22:45:49.888Z,94956.88
2022-11-16T22:48:18.218Z,94972.47
2022-11-16T22:50:46.439Z,94934.63
2022-11-16T22:53:15.731Z,94963.56
2022-11-16T22:55:44.639Z,94959.41
2022-11-16T22:58:12.854Z,94949.75
2022-11-16T23:00:42.286Z,94934.19
2022-11-16T23:03:12.123Z,94957.19
2022-11-16T23:05:49.505Z,94971.22
2022-11-16T23:08:17.705Z,94989.56
2022-11-16T23:10:59.835Z,94968.84
2022-11-16T23:13:54.146Z,95000.03
2022-11-16T23:16:22.378Z,94937.66
2022-11-16T23:18:51.947Z,95003.72
2022-11-16T23:21:37.874Z,94973.47
2022-11-16T23:24:27.171Z,94937.06
2022-11-16T23:27:12.982Z,94983.53
2022-11-16T23:29:41.497Z,95012.91
2022-11-16T23:32:10.067Z,94917.53
2022-11-16T23:34:39.645Z,94983.06
2022-11-16T23:37:08.987Z,94951.25
2022-11-16T23:39:37.231Z,94967.38
2022-11-16T23:42:23.440Z,94937.09
2022-11-16T23:44:51.662Z,94936.41
2022-11-16T23:47:19.871Z,94939.41
2022-11-16T23:49:49.445Z,94966.22
2022-11-16T23:52:17.812Z,94917.84
2022-11-16T23:54:46.023Z,94899.25
2022-11-16T23:57:14.274Z,94907.47
2022-11-16T23:59:42.488Z,94890.00
